Time;durP1;ratioP1;P1;durP2;ratioP2;P2;SDS_P1;SDS_P2;PMS_P1;PMS_P2;Temp;Humidity;BMP_temperature;BMP_pressure;BME280_temperature;BME280_humidity;BME280_pressure;Samples;Min_cycle;Max_cycle;Signal;HPM_P1;HPM_P2
2022/04/21 00:00:24;;;;;;;13.23;7.73;;;;;;;7.78;88.92;94695.75;5092580;28;20196;-62
2022/04/21 00:02:49;;;;;;;10.57;7.77;;;;;;;7.78;89.07;94684.88;5092519;28;20189;-61
2022/04/21 00:05:14;;;;;;;11.17;7.43;;;;;;;7.81;89.03;94686.81;5092744;28;20219;-62
2022/04/21 00:07:40;;;;;;;12.63;6.87;;;;;;;7.80;89.30;94677.13;5092626;28;20189;-59
2022/04/21 00:10:07;;;;;;;10.67;7.27;;;;;;;7.75;89.67;94674.81;5092651;28;20215;-60
2022/04/21 00:12:34;;;;;;;9.77;7.20;;;;;;;7.68;89.56;94676.84;5093278;28;20239;-60
2022/04/21 00:15:00;;;;;;;13.17;7.20;;;;;;;7.54;90.15;94664.13;5092370;28;20207;-60
2022/04/21 00:17:25;;;;;;;11.93;7.87;;;;;;;7.54;90.80;94669.56;5092248;28;20188;-60
2022/04/21 00:19:50;;;;;;;14.63;7.50;;;;;;;7.57;92.08;94663.31;5092336;28;20262;-60
2022/04/21 00:25:00;;;;;;;11.57;8.10;;;;;;;7.66;91.10;94663.66;5093613;28;20265;-58
2022/04/21 00:27:25;;;;;;;13.63;8.03;;;;;;;7.63;91.24;94656.31;5091906;28;20189;-59
2022/04/21 00:29:50;;;;;;;18.43;8.07;;;;;;;7.62;92.38;94664.84;5092471;28;20266;-59
2022/04/21 00:32:16;;;;;;;11.87;7.93;;;;;;;7.55;92.50;94662.19;5094319;28;20192;-59
2022/04/21 00:34:41;;;;;;;12.30;7.90;;;;;;;7.39;93.53;94668.13;5096006;28;20194;-58
2022/04/21 00:37:06;;;;;;;11.20;7.90;;;;;;;7.40;93.57;94658.84;5095509;28;20204;-59
2022/04/21 00:39:32;;;;;;;11.17;7.70;;;;;;;7.30;94.62;94656.97;5095251;28;20193;-58
2022/04/21 00:42:02;;;;;;;11.40;7.90;;;;;;;7.30;94.80;94664.34;5096043;28;20180;-57
2022/04/21 00:44:28;;;;;;;9.53;7.50;;;;;;;7.03;96.20;94661.41;5095509;28;20189;-58
2022/04/21 00:46:56;;;;;;;12.23;7.57;;;;;;;6.98;96.89;94659.13;5095374;28;20593;-58
2022/04/21 00:49:22;;;;;;;10.27;7.60;;;;;;;7.03;95.56;94656.00;5094967;28;20349;-58
2022/04/21 00:51:51;;;;;;;11.40;7.23;;;;;;;7.07;95.48;94656.75;5095688;28;20192;-58
2022/04/21 00:54:17;;;;;;;10.43;7.10;;;;;;;6.94;96.28;94647.53;5095261;28;20238;-58
2022/04/21 00:56:43;;;;;;;15.53;8.20;;;;;;;6.95;95.75;94643.66;5095296;28;20192;-58
2022/04/21 00:59:10;;;;;;;12.10;7.67;;;;;;;6.92;96.71;94649.88;5095191;28;20200;-58
2022/04/21 01:04:21;;;;;;;9.60;7.33;;;;;;;6.89;97.89;94647.97;5096729;28;20191;-58
2022/04/21 01:06:46;;;;;;;11.03;7.80;;;;;;;6.73;100.00;94647.66;5095117;28;20215;-57
2022/04/21 01:09:12;;;;;;;8.07;6.90;;;;;;;6.64;99.34;94650.06;5094507;28;20212;-58
2022/04/21 01:11:38;;;;;;;11.13;7.20;;;;;;;6.62;98.76;94646.94;5094626;28;20200;-58
2022/04/21 01:14:04;;;;;;;12.73;6.93;;;;;;;6.71;98.99;94647.31;5094922;28;20193;-58
2022/04/21 01:16:30;;;;;;;9.57;7.10;;;;;;;6.73;99.85;94645.72;5095955;28;20191;-57
2022/04/21 01:18:56;;;;;;;9.53;6.87;;;;;;;6.62;100.00;94641.53;5094938;28;20198;-58
2022/04/21 01:21:21;;;;;;;10.80;7.53;;;;;;;6.62;100.00;94639.59;5094604;28;20242;-59
2022/04/21 01:23:47;;;;;;;9.50;7.27;;;;;;;6.54;100.00;94640.03;5094689;28;20195;-58
2022/04/21 01:26:12;;;;;;;11.07;7.07;;;;;;;6.61;100.00;94640.78;5094602;28;20236;-60
2022/04/21 01:28:38;;;;;;;11.47;7.40;;;;;;;6.54;100.00;94640.81;5094693;28;20298;-58
2022/04/21 01:31:03;;;;;;;12.80;6.80;;;;;;;6.57;100.00;94650.88;5094765;28;20265;-58
2022/04/21 01:33:29;;;;;;;9.43;7.00;;;;;;;6.55;100.00;94652.41;5095251;28;20196;-58
2022/04/21 01:35:54;;;;;;;8.73;6.97;;;;;;;6.49;100.00;94652.06;5094157;28;20188;-58
2022/04/21 01:41:09;;;;;;;10.77;6.70;;;;;;;6.50;100.00;94640.06;5096215;28;20218;-58
2022/04/21 01:43:38;;;;;;;8.90;6.90;;;;;;;6.48;100.00;94638.88;5094254;28;20188;-58
2022/04/21 01:46:04;;;;;;;11.57;6.93;;;;;;;6.48;100.00;94641.59;5094375;28;20199;-58
2022/04/21 01:48:29;;;;;;;9.93;6.80;;;;;;;6.40;100.00;94640.09;5094404;28;20298;-58
2022/04/21 01:50:55;;;;;;;10.90;6.40;;;;;;;6.30;100.00;94635.47;5094640;28;20187;-58
2022/04/21 01:53:21;;;;;;;10.90;6.77;;;;;;;6.20;100.00;94625.47;5094494;28;20180;-59
2022/04/21 01:55:46;;;;;;;10.13;6.70;;;;;;;6.17;100.00;94637.09;5094682;28;20192;-58
2022/04/21 01:58:12;;;;;;;10.57;7.30;;;;;;;6.17;100.00;94631.69;5094335;28;20188;-58
2022/04/21 02:00:38;;;;;;;9.60;7.17;;;;;;;6.01;100.00;94623.25;5094453;28;20184;-58
2022/04/21 02:03:03;;;;;;;9.53;7.07;;;;;;;6.02;100.00;94625.53;5094772;28;20180;-59
2022/04/21 02:05:29;;;;;;;10.00;6.70;;;;;;;6.06;100.00;94620.09;5093842;28;20189;-58
2022/04/21 02:07:54;;;;;;;13.80;6.83;;;;;;;6.13;100.00;94630.94;5093933;28;20180;-59
2022/04/21 02:10:21;;;;;;;8.77;6.33;;;;;;;6.10;100.00;94623.56;5094102;28;20271;-59
2022/04/21 02:12:47;;;;;;;12.10;6.43;;;;;;;6.12;100.00;94624.72;5094427;28;20181;-58
2022/04/21 02:15:13;;;;;;;9.67;6.50;;;;;;;6.10;100.00;94626.28;5094053;28;20200;-60
2022/04/21 02:17:39;;;;;;;10.60;7.00;;;;;;;5.88;100.00;94624.81;5093944;28;20209;-57
2022/04/21 02:20:06;;;;;;;9.80;6.77;;;;;;;5.85;100.00;94620.97;5093948;28;20185;-58
2022/04/21 02:22:32;;;;;;;10.77;7.13;;;;;;;5.70;100.00;94618.63;5093892;28;20177;-58
2022/04/21 02:24:58;;;;;;;10.60;6.40;;;;;;;5.62;100.00;94617.91;5093917;28;20200;-57
2022/04/21 02:27:23;;;;;;;10.33;6.60;;;;;;;5.63;100.00;94607.81;5093676;28;20180;-57
2022/04/21 02:29:48;;;;;;;10.50;6.73;;;;;;;5.56;100.00;94607.84;5093772;28;20204;-57
2022/04/21 02:32:14;;;;;;;8.03;6.53;;;;;;;5.35;100.00;94616.78;5093666;28;20188;-59
2022/04/21 02:34:41;;;;;;;10.07;7.03;;;;;;;5.45;100.00;94618.69;5093651;28;20189;-61
2022/04/21 02:37:07;;;;;;;10.00;6.83;;;;;;;5.45;100.00;94621.41;5094690;28;20179;-62
2022/04/21 02:39:32;;;;;;;9.63;6.40;;;;;;;5.45;100.00;94624.13;5093489;28;20184;-62
2022/04/21 02:41:57;;;;;;;8.27;6.40;;;;;;;5.51;100.00;94619.06;5093680;28;20184;-61
2022/04/21 02:44:23;;;;;;;10.47;6.60;;;;;;;5.55;100.00;94622.53;5094004;28;20184;-62
2022/04/21 02:46:49;;;;;;;11.03;6.43;;;;;;;5.56;100.00;94618.66;5093357;28;20188;-62
2022/04/21 02:49:15;;;;;;;10.00;6.00;;;;;;;5.46;100.00;94616.78;5093319;28;20295;-62
2022/04/21 02:51:41;;;;;;;10.33;6.40;;;;;;;5.42;100.00;94618.69;5093495;28;20181;-62
2022/04/21 02:59:35;;;;;;;7.90;6.27;;;;;;;5.22;100.00;94622.97;5094734;28;20253;-57
2022/04/21 03:02:00;;;;;;;8.80;6.13;;;;;;;5.29;100.00;94614.84;5093311;28;20192;-57
2022/04/21 03:04:25;;;;;;;9.00;6.47;;;;;;;5.32;100.00;94609.41;5093384;28;20194;-58
2022/04/21 03:06:51;;;;;;;9.70;6.67;;;;;;;5.26;100.00;94604.78;5093061;28;20207;-57
2022/04/21 03:09:16;;;;;;;8.10;6.10;;;;;;;5.27;100.00;94600.91;5093549;28;20251;-59
2022/04/21 03:11:42;;;;;;;8.83;6.63;;;;;;;5.24;100.00;94596.31;5093243;28;20233;-57
2022/04/21 03:14:07;;;;;;;7.63;6.50;;;;;;;5.23;100.00;94597.44;5093128;28;20184;-57
2022/04/21 03:16:32;;;;;;;9.80;6.83;;;;;;;5.20;100.00;94595.50;5092986;28;20219;-56
2022/04/21 03:18:58;;;;;;;8.90;6.50;;;;;;;5.24;100.00;94601.72;5093009;28;20534;-55
2022/04/21 03:24:19;;;;;;;10.20;6.67;;;;;;;5.18;100.00;94603.25;5094491;28;20179;-57
2022/04/21 03:26:44;;;;;;;10.40;6.43;;;;;;;5.23;100.00;94606.34;5092838;28;20284;-57
2022/04/21 03:29:10;;;;;;;13.03;5.97;;;;;;;5.24;100.00;94602.47;5092972;28;20243;-58
2022/04/21 03:31:35;;;;;;;9.83;6.27;;;;;;;5.21;100.00;94602.50;5092826;28;20279;-60
2022/04/21 03:34:02;;;;;;;8.93;6.33;;;;;;;5.12;100.00;94592.06;5092844;28;20224;-60
2022/04/21 03:36:28;;;;;;;10.57;6.73;;;;;;;5.11;100.00;94597.84;5092730;28;20192;-60
2022/04/21 03:38:53;;;;;;;10.40;7.00;;;;;;;5.22;100.00;94598.63;5092952;28;20192;-60
2022/04/21 03:41:18;;;;;;;21.20;13.37;;;;;;;5.28;100.00;94602.50;5093136;28;20187;-60
2022/04/21 03:43:43;;;;;;;9.90;7.03;;;;;;;5.27;100.00;94590.09;5093230;28;20192;-60
2022/04/21 03:46:09;;;;;;;9.10;6.53;;;;;;;5.27;100.00;94585.47;5093003;28;20190;-60
2022/04/21 03:48:35;;;;;;;9.97;6.77;;;;;;;5.28;100.00;94580.84;5092612;28;20303;-60
2022/04/21 03:51:00;;;;;;;11.23;6.27;;;;;;;5.37;100.00;94589.31;5092378;28;20228;-60
2022/04/21 03:53:26;;;;;;;10.07;6.33;;;;;;;5.43;100.00;94582.34;5092594;28;20233;-61
2022/04/21 03:55:51;;;;;;;8.07;6.50;;;;;;;5.45;100.00;94586.22;5092749;28;20250;-61
2022/04/21 03:58:16;;;;;;;8.63;6.07;;;;;;;5.48;100.00;94582.72;5092349;28;20204;-61
2022/04/21 04:00:41;;;;;;;8.93;6.03;;;;;;;5.45;100.00;94585.44;5092883;28;20188;-60
2022/04/21 04:03:07;;;;;;;8.37;6.73;;;;;;;5.45;100.00;94580.00;5092627;28;20188;-60
2022/04/21 04:05:33;;;;;;;8.10;6.67;;;;;;;5.44;100.00;94578.47;5094319;28;20180;-58
2022/04/21 04:10:52;;;;;;;9.83;6.60;;;;;;;5.38;100.00;94575.41;5097138;28;20225;-60
2022/04/21 04:13:21;;;;;;;8.03;6.63;;;;;;;5.49;100.00;94576.16;5096217;28;20278;-60
2022/04/21 04:15:49;;;;;;;10.90;6.87;;;;;;;5.56;100.00;94567.22;5095376;28;20251;-60
2022/04/21 04:18:19;;;;;;;12.43;7.20;;;;;;;5.67;100.00;94571.44;5095747;28;20188;-61
2022/04/21 04:20:46;;;;;;;10.77;6.70;;;;;;;5.77;100.00;94569.88;5095693;28;20203;-60
2022/04/21 04:23:14;;;;;;;11.07;6.33;;;;;;;5.81;100.00;94568.72;5095806;28;20230;-59
2022/04/21 04:25:39;;;;;;;10.53;6.93;;;;;;;5.86;100.00;94572.94;5095599;28;20208;-59
2022/04/21 04:28:05;;;;;;;10.53;6.90;;;;;;;6.02;100.00;94570.56;5096300;28;20191;-59
2022/04/21 04:30:31;;;;;;;10.50;6.60;;;;;;;6.15;100.00;94567.03;5095567;28;20192;-59
2022/04/21 04:32:57;;;;;;;10.93;6.83;;;;;;;6.21;100.00;94560.03;5095550;28;20183;-59
2022/04/21 04:35:24;;;;;;;10.53;7.10;;;;;;;6.36;100.00;94563.44;5095390;28;20199;-59
2022/04/21 04:37:50;;;;;;;11.50;6.97;;;;;;;6.36;100.00;94564.22;5095796;28;20196;-59
2022/04/21 04:40:17;;;;;;;9.27;6.77;;;;;;;6.48;100.00;94568.38;5095745;28;20192;-60
2022/04/21 04:42:42;;;;;;;12.17;7.37;;;;;;;6.57;100.00;94574.16;5095743;28;20282;-57
2022/04/21 04:48:11;;;;;;;9.67;6.93;;;;;;;6.74;100.00;94573.25;5034703;28;20186;-59
2022/04/21 04:50:36;;;;;;;11.57;7.60;;;;;;;6.78;100.00;94574.00;5034224;28;20281;-59
2022/04/21 04:53:02;;;;;;;11.57;6.57;;;;;;;6.79;100.00;94567.41;5062395;28;20568;-60
2022/04/21 04:55:27;;;;;;;10.00;7.10;;;;;;;6.77;100.00;94572.44;5095265;28;20184;-59
2022/04/21 04:57:52;;;;;;;12.30;7.17;;;;;;;6.79;100.00;94564.69;5095553;28;20219;-59
2022/04/21 05:00:18;;;;;;;13.10;7.40;;;;;;;7.01;100.00;94574.22;5095156;28;20293;-59
2022/04/21 05:02:44;;;;;;;11.97;6.50;;;;;;;7.03;100.00;94573.81;5095122;28;20204;-59
2022/04/21 05:05:11;;;;;;;9.70;6.80;;;;;;;7.18;97.54;94575.22;5094951;28;20192;-58
2022/04/21 05:07:39;;;;;;;10.97;6.67;;;;;;;7.09;98.32;94567.53;5095536;28;20245;-59
2022/04/21 05:10:05;;;;;;;8.37;6.63;;;;;;;7.17;96.41;94565.56;5095493;28;20212;-58
2022/04/21 05:12:30;;;;;;;13.30;8.13;;;;;;;7.31;97.03;94574.31;5095046;28;20195;-58
2022/04/21 05:14:56;;;;;;;15.37;8.70;;;;;;;7.49;97.95;94572.22;5094787;28;20192;-59
2022/04/21 05:17:22;;;;;;;12.73;8.97;;;;;;;7.76;97.13;94564.94;5094363;28;20199;-58
2022/04/21 05:19:47;;;;;;;14.37;9.37;;;;;;;7.93;97.48;94558.53;5094571;28;20217;-59
2022/04/21 05:22:13;;;;;;;13.60;9.00;;;;;;;8.11;98.75;94567.25;5094743;28;20188;-59
2022/04/21 05:24:40;;;;;;;13.77;9.57;;;;;;;8.33;97.47;94565.81;5094537;28;20533;-61
2022/04/21 05:27:06;;;;;;;11.67;9.00;;;;;;;8.41;97.51;94564.56;5095753;28;20234;-61
2022/04/21 05:32:18;;;;;;;12.27;9.33;;;;;;;8.30;100.00;94569.34;5096264;28;20234;-64
2022/04/21 05:34:44;;;;;;;12.80;8.70;;;;;;;8.50;100.00;94569.50;5094208;28;20193;-61
2022/04/21 05:37:10;;;;;;;14.03;8.97;;;;;;;8.69;100.00;94564.16;5094669;28;20186;-57
2022/04/21 05:39:36;;;;;;;14.33;9.03;;;;;;;8.93;98.30;94568.44;5094887;28;20255;-61
2022/04/21 05:42:02;;;;;;;13.03;9.10;;;;;;;9.36;94.41;94574.75;5094198;28;20598;-61
2022/04/21 05:44:28;;;;;;;14.37;9.67;;;;;;;9.63;92.80;94572.75;5094805;28;20186;-61
2022/04/21 05:46:54;;;;;;;15.93;9.53;;;;;;;9.47;92.04;94569.13;5094257;28;20190;-61
2022/04/21 05:49:19;;;;;;;14.17;9.10;;;;;;;9.37;91.21;94576.28;5094855;28;20279;-62
2022/04/21 05:51:48;;;;;;;16.27;9.97;;;;;;;10.55;87.10;94565.47;5094232;28;20215;-62
2022/04/21 05:54:15;;;;;;;13.30;9.43;;;;;;;10.52;84.98;94569.06;5094207;28;20188;-57
2022/04/21 05:56:40;;;;;;;12.73;8.93;;;;;;;11.79;79.00;94562.88;5094740;28;20232;-59
2022/04/21 05:59:06;;;;;;;14.70;9.00;;;;;;;12.80;72.37;94566.66;5094409;28;20181;-56
2022/04/21 06:01:31;;;;;;;10.70;9.57;;;;;;;14.57;64.70;94558.34;5093774;28;20181;-57
2022/04/21 06:03:57;;;;;;;13.17;9.80;;;;;;;15.87;57.48;94551.22;5094163;28;20175;-57
2022/04/21 06:06:22;;;;;;;11.87;9.50;;;;;;;16.62;52.19;94549.53;5093733;28;20241;-55
2022/04/21 06:08:47;;;;;;;10.47;9.37;;;;;;;17.22;49.08;94555.78;5093851;28;20210;-54
2022/04/21 06:11:13;;;;;;;10.93;9.27;;;;;;;17.19;48.54;94556.69;5093776;28;20192;-52
2022/04/21 06:13:41;;;;;;;12.57;9.60;;;;;;;17.11;48.11;94554.75;5093697;28;20199;-58
2022/04/21 06:16:06;;;;;;;10.30;9.20;;;;;;;16.26;49.82;94553.06;5093800;28;20180;-59
2022/04/21 06:18:32;;;;;;;10.90;9.20;;;;;;;16.64;47.81;94538.78;5094232;28;20546;-59
2022/04/21 06:20:57;;;;;;;12.53;9.87;;;;;;;16.61;48.14;94541.72;5093824;28;20176;-59
2022/04/21 06:23:22;;;;;;;14.80;11.47;;;;;;;16.05;49.42;94553.97;5093834;28;20176;-59
2022/04/21 06:25:48;;;;;;;10.13;9.00;;;;;;;15.43;49.37;94549.91;5093567;28;20265;-59
2022/04/21 06:28:15;;;;;;;13.23;10.07;;;;;;;16.11;49.37;94554.88;5093268;28;20196;-59
2022/04/21 06:30:41;;;;;;;11.97;9.90;;;;;;;15.77;49.30;94549.66;5093269;28;20180;-58
2022/04/21 06:33:06;;;;;;;12.00;9.67;;;;;;;15.46;49.80;94551.75;5093680;28;20202;-59
2022/04/21 06:35:32;;;;;;;11.27;10.07;;;;;;;15.35;50.50;94543.16;5093986;28;20192;-60
2022/04/21 06:37:58;;;;;;;18.20;11.67;;;;;;;16.16;50.19;94551.53;5093754;28;20180;-61
2022/04/21 06:40:24;;;;;;;14.00;10.00;;;;;;;15.47;48.45;94558.78;5093314;28;20196;-60
2022/04/21 06:42:50;;;;;;;13.33;10.43;;;;;;;15.79;48.99;94547.22;5093454;28;20185;-60
2022/04/21 06:48:02;;;;;;;10.87;9.50;;;;;;;15.81;46.91;94547.53;5095126;28;20551;-61
2022/04/21 06:50:35;;;;;;;12.53;8.93;;;;;;;15.58;47.98;94556.34;5093303;28;20181;-57
2022/04/21 06:53:06;;;;;;;11.00;9.90;;;;;;;16.32;47.16;94551.22;5093379;28;20292;-59
2022/04/21 06:55:32;;;;;;;10.90;9.50;;;;;;;16.63;46.02;94547.50;5093225;28;20173;-59
2022/04/21 06:57:57;;;;;;;11.50;9.73;;;;;;;17.34;44.19;94538.22;5092949;28;20272;-59
2022/04/21 07:00:26;;;;;;;11.93;9.63;;;;;;;18.83;42.06;94531.00;5093791;28;20196;-59
2022/04/21 07:02:57;;;;;;;10.43;9.27;;;;;;;21.22;37.34;94528.84;5093087;28;20188;-59
2022/04/21 07:05:23;;;;;;;11.70;10.13;;;;;;;22.28;35.85;94529.00;5094244;28;20188;-57
2022/04/21 07:07:49;;;;;;;12.27;9.77;;;;;;;22.80;33.38;94523.84;5093704;28;20187;-59
2022/04/21 07:10:15;;;;;;;14.33;9.70;;;;;;;23.49;32.72;94522.91;5092850;28;20265;-58
2022/04/21 07:12:41;;;;;;;14.83;12.43;;;;;;;25.05;29.73;94519.06;5092971;28;20188;-58
2022/04/21 07:15:08;;;;;;;10.70;9.63;;;;;;;25.70;27.71;94519.84;5093001;28;20183;-57
2022/04/21 07:17:34;;;;;;;11.73;10.27;;;;;;;26.45;26.19;94527.22;5093380;28;20694;-58
2022/04/21 07:20:02;;;;;;;10.87;9.63;;;;;;;27.09;25.74;94526.09;5093193;28;20227;-58
2022/04/21 07:22:28;;;;;;;11.70;10.10;;;;;;;24.95;26.98;94532.59;5092998;28;20271;-57
2022/04/21 07:24:54;;;;;;;12.43;9.77;;;;;;;24.96;27.52;94522.19;5093317;28;20239;-57
2022/04/21 07:27:21;;;;;;;11.27;10.00;;;;;;;24.62;27.49;94532.03;5093020;28;20283;-57
2022/04/21 07:29:46;;;;;;;11.90;9.63;;;;;;;24.92;27.58;94530.81;5093312;28;20201;-53
2022/04/21 07:32:12;;;;;;;13.20;9.83;;;;;;;24.64;27.53;94535.06;5092590;28;20215;-52
2022/04/21 07:34:38;;;;;;;12.60;9.50;;;;;;;24.84;27.01;94531.91;5092865;28;20206;-53
2022/04/21 07:37:04;;;;;;;12.83;9.80;;;;;;;25.74;26.84;94527.97;5092892;28;20352;-52
2022/04/21 07:39:30;;;;;;;11.17;9.57;;;;;;;27.19;24.89;94524.44;5092474;28;20410;-49
2022/04/21 07:41:57;;;;;;;12.17;10.07;;;;;;;26.26;25.56;94537.59;5092583;28;20193;-51
2022/04/21 07:44:23;;;;;;;10.27;9.23;;;;;;;25.96;25.59;94522.91;5093013;28;20321;-55
2022/04/21 07:46:48;;;;;;;11.13;9.07;;;;;;;26.78;24.77;94529.63;5092958;28;20188;-59
2022/04/21 07:53:13;;;;;;;10.50;9.50;;;;;;;27.41;24.26;94535.34;5093718;28;20640;-59
2022/04/21 07:54:46;;;;;;;10.27;9.20;;;;;;;26.02;25.24;94537.63;5093982;28;20238;-60
2022/04/21 07:57:11;;;;;;;11.53;10.33;;;;;;;27.37;23.77;94534.91;5092823;28;20191;-59
2022/04/21 07:59:36;;;;;;;11.00;10.00;;;;;;;26.40;25.15;94539.22;5093165;28;20224;-59
2022/04/21 08:02:03;;;;;;;11.87;9.70;;;;;;;27.32;23.61;94535.72;5092457;28;20271;-51
2022/04/21 08:04:29;;;;;;;10.43;9.33;;;;;;;28.09;23.01;94533.69;5092490;28;20208;-58
2022/04/21 08:06:57;;;;;;;11.77;10.20;;;;;;;26.71;23.71;94541.44;5092602;28;20180;-49
2022/04/21 08:09:22;;;;;;;10.23;9.13;;;;;;;25.70;24.90;94536.63;5092366;28;20218;-52
2022/04/21 08:11:48;;;;;;;10.20;9.20;;;;;;;26.62;24.83;94538.97;5092490;28;20272;-51
2022/04/21 08:14:16;;;;;;;11.40;10.23;;;;;;;26.48;24.71;94539.41;5092861;28;20192;-52
2022/04/21 08:16:43;;;;;;;11.23;10.07;;;;;;;26.41;24.69;94537.19;5092471;28;20692;-50
2022/04/21 08:19:09;;;;;;;11.33;9.50;;;;;;;26.59;24.52;94531.63;5092179;28;20259;-50
2022/04/21 08:21:34;;;;;;;11.23;9.60;;;;;;;26.82;24.06;94529.28;5092553;28;20188;-58
2022/04/21 08:32:33;;;;;;;13.73;10.37;;;;;;;26.91;23.59;94531.75;5092295;28;20329;-61
2022/04/21 08:32:33;;;;;;;12.10;10.10;;;;;;;27.47;23.32;94533.22;5093511;28;20191;-61
2022/04/21 08:34:59;;;;;;;11.43;9.73;;;;;;;27.69;23.02;94532.06;5092732;28;20195;-62
2022/04/21 08:37:25;;;;;;;11.23;10.03;;;;;;;29.10;21.51;94523.47;5091923;28;20181;-63
2022/04/21 08:39:50;;;;;;;13.87;11.00;;;;;;;29.36;22.26;94525.44;5093057;28;20239;-55
2022/04/21 08:42:15;;;;;;;13.47;10.43;;;;;;;27.54;23.66;94538.16;5092418;28;20181;-58
2022/04/21 08:44:44;;;;;;;12.17;10.97;;;;;;;27.83;23.85;94530.84;5092010;28;20206;-58
2022/04/21 08:47:10;;;;;;;11.60;10.40;;;;;;;28.53;23.04;94523.66;5091886;28;20216;-57
2022/04/21 08:49:39;;;;;;;13.73;10.40;;;;;;;28.28;23.18;94521.06;5091871;28;20224;-58
2022/04/21 08:52:05;;;;;;;10.97;9.97;;;;;;;27.06;23.59;94529.22;5093416;28;20191;-57
2022/04/21 08:54:31;;;;;;;11.53;10.33;;;;;;;27.46;23.62;94530.94;5095480;28;20188;-56
2022/04/21 08:56:57;;;;;;;12.50;9.77;;;;;;;28.33;23.06;94515.88;5095398;28;20272;-56
2022/04/21 08:59:22;;;;;;;11.10;9.80;;;;;;;26.80;23.26;94527.03;5095074;28;20228;-58
2022/04/21 09:01:48;;;;;;;11.60;9.53;;;;;;;24.25;25.83;94526.06;5095428;28;20201;-59
2022/04/21 09:04:13;;;;;;;11.80;9.60;;;;;;;26.77;24.21;94525.28;5096447;28;20173;-59
2022/04/21 09:06:39;;;;;;;12.60;9.87;;;;;;;26.62;23.58;94515.81;5094970;28;20180;-59
2022/04/21 09:09:21;;;;;;;13.70;9.53;;;;;;;24.46;25.28;94524.44;5095741;28;20191;-59
2022/04/21 09:11:51;;;;;;;10.40;9.30;;;;;;;25.02;25.03;94520.13;5095207;28;20237;-58
2022/04/21 09:14:17;;;;;;;14.27;10.07;;;;;;;24.81;26.42;94516.19;5094942;28;20176;-59
2022/04/21 09:16:43;;;;;;;11.13;10.03;;;;;;;25.59;25.60;94513.56;5095036;28;20210;-60
2022/04/21 09:19:08;;;;;;;17.60;15.00;;;;;;;25.93;24.93;94507.13;5095387;28;20621;-56
2022/04/21 09:21:38;;;;;;;10.77;9.70;;;;;;;24.53;26.20;94512.75;5094974;28;20180;-55
2022/04/21 09:24:23;;;;;;;13.33;10.63;;;;;;;25.23;25.12;94501.66;5095220;28;20193;-58
2022/04/21 09:26:49;;;;;;;10.70;9.60;;;;;;;25.62;25.20;94510.50;5094823;28;20192;-58
2022/04/21 09:29:30;;;;;;;13.60;10.43;;;;;;;25.60;25.46;94501.88;5094836;28;20232;-56
2022/04/21 09:31:58;;;;;;;10.73;9.20;;;;;;;24.98;26.08;94511.22;5094900;28;20698;-57
2022/04/21 09:34:24;;;;;;;10.73;8.90;;;;;;;24.20;26.68;94501.72;5094874;28;20188;-57
2022/04/21 09:36:49;;;;;;;11.57;9.67;;;;;;;26.18;26.01;94500.28;5094328;28;20189;-59
2022/04/21 09:39:15;;;;;;;12.67;10.20;;;;;;;27.07;25.22;94506.25;5094459;28;20201;-63
2022/04/21 09:41:43;;;;;;;9.97;8.97;;;;;;;25.15;26.37;94503.50;5094388;28;20195;-58
2022/04/21 09:46:56;;;;;;;11.43;10.23;;;;;;;22.88;28.69;94496.28;5095592;28;20206;-60
2022/04/21 09:49:43;;;;;;;12.07;10.40;;;;;;;24.04;28.76;94505.34;5094125;28;20271;-61
2022/04/21 09:52:09;;;;;;;12.80;10.13;;;;;;;23.68;29.20;94498.03;5094731;28;20224;-59
2022/04/21 09:54:34;;;;;;;11.50;10.30;;;;;;;25.31;27.75;94492.22;5094335;28;20219;-59
2022/04/21 09:57:01;;;;;;;10.90;9.73;;;;;;;24.03;29.22;94487.06;5095314;28;20723;-59
2022/04/21 09:59:27;;;;;;;10.10;9.00;;;;;;;23.90;28.56;94495.97;5094416;28;20205;-58
2022/04/21 10:01:53;;;;;;;10.53;9.43;;;;;;;22.33;30.37;94503.19;5094077;28;20196;-59
2022/04/21 10:04:20;;;;;;;10.17;9.17;;;;;;;22.84;30.94;94487.41;5093971;28;20223;-59
2022/04/21 10:06:46;;;;;;;9.63;8.63;;;;;;;23.21;29.73;94479.56;5093888;28;20223;-59
2022/04/21 10:09:16;;;;;;;10.30;9.20;;;;;;;24.19;28.93;94484.22;5094194;28;20214;-60
2022/04/21 10:11:42;;;;;;;10.50;9.37;;;;;;;23.65;29.48;94473.97;5094798;28;20192;-60
2022/04/21 10:14:12;;;;;;;10.00;9.00;;;;;;;24.31;29.01;94468.19;5093831;28;20192;-56
2022/04/21 10:16:39;;;;;;;9.97;9.07;;;;;;;23.01;29.62;94477.06;5094684;28;20184;-54
2022/04/21 10:19:05;;;;;;;10.40;9.30;;;;;;;23.81;29.13;94475.94;5093932;28;20205;-55
2022/04/21 10:21:34;;;;;;;10.23;9.23;;;;;;;24.60;27.70;94478.69;5093990;28;20200;-53
2022/04/21 10:24:00;;;;;;;10.13;8.90;;;;;;;23.57;29.68;94456.25;5094161;28;20272;-55
2022/04/21 10:26:37;;;;;;;10.80;8.83;;;;;;;25.16;28.64;94457.47;5093682;28;20208;-51
2022/04/21 10:29:29;;;;;;;9.97;9.07;;;;;;;25.32;27.63;94453.84;5094496;28;20192;-50
2022/04/21 10:32:04;;;;;;;10.50;9.40;;;;;;;25.06;28.23;94457.06;5089783;28;20196;-57
2022/04/21 10:34:37;;;;;;;11.20;9.97;;;;;;;23.66;29.07;94453.16;5094108;28;20184;-54
2022/04/21 10:37:07;;;;;;;10.87;9.63;;;;;;;22.80;30.72;94459.06;5093464;28;20222;-52
2022/04/21 10:39:32;;;;;;;10.10;9.10;;;;;;;23.87;29.76;94451.59;5093527;28;20200;-53
2022/04/21 10:42:14;;;;;;;12.77;9.47;;;;;;;22.86;30.66;94448.66;5093652;28;20195;-53
2022/04/21 10:44:42;;;;;;;10.10;9.10;;;;;;;23.93;29.83;94449.59;5093551;28;20180;-51
2022/04/21 10:47:33;;;;;;;10.27;8.97;;;;;;;22.61;30.83;94461.53;5093505;28;20188;-52
2022/04/21 10:50:01;;;;;;;9.53;8.60;;;;;;;22.56;31.20;94442.06;5093430;28;20192;-52
2022/04/21 10:57:46;;;;;;;10.43;9.43;;;;;;;23.29;30.23;94439.56;5094595;28;20252;-55
2022/04/21 11:00:29;;;;;;;10.33;9.33;;;;;;;23.79;28.84;94425.50;5093212;28;20212;-55
2022/04/21 11:03:01;;;;;;;10.20;9.20;;;;;;;23.35;29.33;94423.59;5093120;28;20192;-56
2022/04/21 11:05:30;;;;;;;11.10;9.37;;;;;;;23.78;28.86;94421.22;5093477;28;20184;-56
2022/04/21 11:07:58;;;;;;;9.60;8.63;;;;;;;24.59;27.75;94410.88;5093880;28;20180;-60
2022/04/21 11:10:39;;;;;;;11.07;9.40;;;;;;;24.65;27.71;94410.88;5093135;28;20188;-59
2022/04/21 11:13:08;;;;;;;9.77;8.77;;;;;;;24.23;27.51;94416.97;5093462;28;20524;-59
2022/04/21 11:15:50;;;;;;;9.50;7.97;;;;;;;23.30;27.94;94416.00;5092882;28;20199;-59
2022/04/21 11:18:36;;;;;;;8.97;8.07;;;;;;;24.04;27.43;94410.47;5091607;28;20275;-59
2022/04/21 11:21:26;;;;;;;9.63;8.60;;;;;;;25.50;25.82;94402.81;5092398;28;20660;-59
2022/04/21 11:23:51;;;;;;;9.57;8.67;;;;;;;24.04;27.88;94410.47;5092859;28;20196;-59
2022/04/21 11:26:17;;;;;;;10.13;8.53;;;;;;;24.14;27.63;94403.28;5092930;28;20196;-55
2022/04/21 11:28:44;;;;;;;8.93;8.13;;;;;;;23.36;28.97;94407.63;5092938;28;20223;-60
2022/04/21 11:31:10;;;;;;;9.70;8.70;;;;;;;22.45;29.79;94412.94;5093482;28;20181;-59
2022/04/21 11:33:39;;;;;;;9.50;8.50;;;;;;;20.65;32.02;94419.78;5092628;28;20192;-60
2022/04/21 11:36:09;;;;;;;10.33;8.47;;;;;;;19.68;33.54;94421.78;5092546;28;20533;-59
2022/04/21 11:38:35;;;;;;;11.17;9.27;;;;;;;18.53;34.76;94409.78;5092726;28;20298;-59
2022/04/21 11:41:03;;;;;;;9.67;8.63;;;;;;;18.49;35.32;94417.50;5093013;28;20453;-59
2022/04/21 11:43:28;;;;;;;9.60;8.50;;;;;;;17.63;36.48;94425.19;5092919;28;20215;-60
2022/04/21 11:45:56;;;;;;;8.93;8.03;;;;;;;17.75;36.76;94410.38;5092897;28;20234;-60
2022/04/21 11:48:30;;;;;;;9.33;8.20;;;;;;;18.20;36.04;94395.38;5093044;28;20200;-59
2022/04/21 11:50:56;;;;;;;10.00;7.77;;;;;;;17.67;37.03;94405.69;5092771;28;20551;-60
2022/04/21 11:53:22;;;;;;;11.03;8.80;;;;;;;17.55;36.41;94392.91;5093617;28;20184;-60
2022/04/21 11:55:48;;;;;;;9.03;7.97;;;;;;;17.14;37.75;94396.53;5092422;28;20655;-60
2022/04/21 11:58:38;;;;;;;8.83;7.93;;;;;;;17.52;37.85;94391.09;5092246;28;20191;-59
2022/04/21 12:06:56;;;;;;;9.23;7.90;;;;;;;17.83;37.54;94388.66;5088979;28;20556;-61
2022/04/21 12:09:25;;;;;;;9.57;8.47;;;;;;;16.83;38.97;94401.63;5092022;28;20184;-61
2022/04/21 12:11:56;;;;;;;9.07;7.60;;;;;;;17.10;38.68;94387.66;5092238;28;20184;-61
2022/04/21 12:14:22;;;;;;;9.57;8.10;;;;;;;17.30;38.84;94379.56;5092351;28;20267;-62
2022/04/21 12:16:53;;;;;;;9.23;8.20;;;;;;;17.52;38.91;94380.06;5092195;28;20265;-61